sensor_id;sensor_type;location;lat;lon;timestamp;pressure;altitude;pressure_sealevel;temperature;humidity
11808;BME280;5961;42.640;23.380;2023-05-07T00:00:34;94273.09;;;13.48;76.60
11808;BME280;5961;42.640;23.380;2023-05-07T00:03:01;94269.75;;;13.51;76.75
11808;BME280;5961;42.640;23.380;2023-05-07T00:05:28;94269.22;;;13.46;76.93
11808;BME280;5961;42.640;23.380;2023-05-07T00:07:55;94275.00;;;13.48;76.99
11808;BME280;5961;42.640;23.380;2023-05-07T00:10:21;94283.44;;;13.50;76.76
11808;BME280;5961;42.640;23.380;2023-05-07T00:12:48;94286.34;;;13.45;76.73
11808;BME280;5961;42.640;23.380;2023-05-07T00:15:15;94288.69;;;13.46;76.47
11808;BME280;5961;42.640;23.380;2023-05-07T00:17:43;94287.59;;;13.47;75.85
11808;BME280;5961;42.640;23.380;2023-05-07T00:20:10;94288.44;;;13.51;75.55
11808;BME280;5961;42.640;23.380;2023-05-07T00:22:37;94285.06;;;13.54;75.23
11808;BME280;5961;42.640;23.380;2023-05-07T00:25:04;94283.69;;;13.60;75.30
11808;BME280;5961;42.640;23.380;2023-05-07T00:27:31;94276.88;;;13.63;76.47
11808;BME280;5961;42.640;23.380;2023-05-07T00:29:58;94279.91;;;13.61;77.12
11808;BME280;5961;42.640;23.380;2023-05-07T00:32:24;94280.78;;;13.65;77.62
11808;BME280;5961;42.640;23.380;2023-05-07T00:34:52;94270.44;;;13.64;78.02
11808;BME280;5961;42.640;23.380;2023-05-07T00:37:19;94275.59;;;13.57;79.37
11808;BME280;5961;42.640;23.380;2023-05-07T00:39:46;94276.13;;;13.47;81.90
11808;BME280;5961;42.640;23.380;2023-05-07T00:42:12;94276.22;;;13.50;81.80
11808;BME280;5961;42.640;23.380;2023-05-07T00:44:40;94282.06;;;13.56;80.96
11808;BME280;5961;42.640;23.380;2023-05-07T00:47:07;94283.53;;;13.53;80.64
11808;BME280;5961;42.640;23.380;2023-05-07T00:49:37;94237.28;;;13.06;80.08
11808;BME280;5961;42.640;23.380;2023-05-07T00:52:07;94294.75;;;13.15;78.61
11808;BME280;5961;42.640;23.380;2023-05-07T00:54:36;94282.31;;;13.07;78.55
11808;BME280;5961;42.640;23.380;2023-05-07T00:57:03;94255.97;;;12.62;80.15
11808;BME280;5961;42.640;23.380;2023-05-07T00:59:30;94288.41;;;12.52;81.75
11808;BME280;5961;42.640;23.380;2023-05-07T01:01:58;94283.78;;;12.37;83.14
11808;BME280;5961;42.640;23.380;2023-05-07T01:04:26;94269.63;;;12.09;84.16
11808;BME280;5961;42.640;23.380;2023-05-07T01:06:53;94296.91;;;12.18;84.92
11808;BME280;5961;42.640;23.380;2023-05-07T01:09:22;94290.25;;;12.12;85.58
11808;BME280;5961;42.640;23.380;2023-05-07T01:11:51;94294.84;;;12.12;85.81
11808;BME280;5961;42.640;23.380;2023-05-07T01:14:18;94297.16;;;12.01;86.32
11808;BME280;5961;42.640;23.380;2023-05-07T01:16:46;94291.41;;;11.99;86.52
11808;BME280;5961;42.640;23.380;2023-05-07T01:19:12;94293.84;;;11.92;87.00
11808;BME280;5961;42.640;23.380;2023-05-07T01:21:45;94292.28;;;11.91;87.48
11808;BME280;5961;42.640;23.380;2023-05-07T01:24:14;94281.84;;;11.74;89.06
11808;BME280;5961;42.640;23.380;2023-05-07T01:26:43;94264.94;;;11.57;89.71
11808;BME280;5961;42.640;23.380;2023-05-07T01:29:10;94285.91;;;11.59;89.97
11808;BME280;5961;42.640;23.380;2023-05-07T01:31:37;94275.72;;;11.61;89.96
11808;BME280;5961;42.640;23.380;2023-05-07T01:34:07;94246.53;;;11.40;89.82
11808;BME280;5961;42.640;23.380;2023-05-07T01:36:37;94276.59;;;11.65;90.36
11808;BME280;5961;42.640;23.380;2023-05-07T01:39:06;94264.28;;;11.61;90.85
11808;BME280;5961;42.640;23.380;2023-05-07T01:41:34;94271.88;;;11.71;90.86
11808;BME280;5961;42.640;23.380;2023-05-07T01:44:03;94267.44;;;11.75;90.91
11808;BME280;5961;42.640;23.380;2023-05-07T01:46:31;94263.66;;;11.76;92.01
11808;BME280;5961;42.640;23.380;2023-05-07T01:48:58;94260.31;;;11.79;92.93
11808;BME280;5961;42.640;23.380;2023-05-07T01:51:25;94261.56;;;11.81;93.90
11808;BME280;5961;42.640;23.380;2023-05-07T01:53:52;94261.66;;;11.85;93.88
11808;BME280;5961;42.640;23.380;2023-05-07T01:56:19;94258.97;;;11.85;93.75
11808;BME280;5961;42.640;23.380;2023-05-07T01:58:47;94256.66;;;11.83;93.94
11808;BME280;5961;42.640;23.380;2023-05-07T02:01:14;94248.31;;;11.85;93.60
11808;BME280;5961;42.640;23.380;2023-05-07T02:03:41;94246.34;;;11.82;93.53
11808;BME280;5961;42.640;23.380;2023-05-07T02:06:08;94240.81;;;11.87;93.51
11808;BME280;5961;42.640;23.380;2023-05-07T02:08:35;94235.03;;;11.73;93.66
11808;BME280;5961;42.640;23.380;2023-05-07T02:11:01;94237.03;;;11.76;94.31
11808;BME280;5961;42.640;23.380;2023-05-07T02:13:32;94244.13;;;11.84;94.07
11808;BME280;5961;42.640;23.380;2023-05-07T02:16:01;94231.00;;;11.91;93.91
11808;BME280;5961;42.640;23.380;2023-05-07T02:18:28;94230.56;;;12.01;92.99
11808;BME280;5961;42.640;23.380;2023-05-07T02:20:55;94224.78;;;12.11;92.59
11808;BME280;5961;42.640;23.380;2023-05-07T02:23:21;94223.34;;;12.14;92.37
11808;BME280;5961;42.640;23.380;2023-05-07T02:25:48;94222.13;;;12.11;92.30
11808;BME280;5961;42.640;23.380;2023-05-07T02:28:15;94226.69;;;11.98;92.96
11808;BME280;5961;42.640;23.380;2023-05-07T02:30:41;94198.22;;;11.75;93.11
11808;BME280;5961;42.640;23.380;2023-05-07T02:33:09;94227.25;;;11.92;93.17
11808;BME280;5961;42.640;23.380;2023-05-07T02:35:37;94235.66;;;11.94;93.00
11808;BME280;5961;42.640;23.380;2023-05-07T02:38:04;94228.81;;;11.93;93.41
11808;BME280;5961;42.640;23.380;2023-05-07T02:40:31;94233.91;;;11.98;93.18
11808;BME280;5961;42.640;23.380;2023-05-07T02:42:59;94236.66;;;12.01;92.69
11808;BME280;5961;42.640;23.380;2023-05-07T02:45:25;94230.13;;;11.99;92.82
11808;BME280;5961;42.640;23.380;2023-05-07T02:47:52;94232.78;;;12.11;92.64
11808;BME280;5961;42.640;23.380;2023-05-07T02:50:20;94226.31;;;12.12;92.28
11808;BME280;5961;42.640;23.380;2023-05-07T02:52:47;94229.97;;;12.20;91.44
11808;BME280;5961;42.640;23.380;2023-05-07T02:55:13;94234.38;;;12.28;90.82
11808;BME280;5961;42.640;23.380;2023-05-07T02:57:40;94234.06;;;12.29;90.98
11808;BME280;5961;42.640;23.380;2023-05-07T03:00:11;94243.50;;;12.27;91.46
11808;BME280;5961;42.640;23.380;2023-05-07T03:02:38;94226.06;;;12.29;91.20
11808;BME280;5961;42.640;23.380;2023-05-07T03:05:06;94243.69;;;12.34;91.09
11808;BME280;5961;42.640;23.380;2023-05-07T03:07:34;94237.59;;;12.33;91.24
11808;BME280;5961;42.640;23.380;2023-05-07T03:10:01;94238.91;;;12.39;90.84
11808;BME280;5961;42.640;23.380;2023-05-07T03:12:28;94237.81;;;12.40;91.14
11808;BME280;5961;42.640;23.380;2023-05-07T03:14:54;94240.22;;;12.45;91.03
11808;BME280;5961;42.640;23.380;2023-05-07T03:17:21;94243.34;;;12.47;90.63
11808;BME280;5961;42.640;23.380;2023-05-07T03:19:48;94243.53;;;12.54;90.94
11808;BME280;5961;42.640;23.380;2023-05-07T03:22:15;94256.63;;;12.59;90.68
11808;BME280;5961;42.640;23.380;2023-05-07T03:24:43;94253.63;;;12.61;90.96
11808;BME280;5961;42.640;23.380;2023-05-07T03:27:09;94261.38;;;12.66;90.53
11808;BME280;5961;42.640;23.380;2023-05-07T03:29:36;94259.25;;;12.72;90.47
11808;BME280;5961;42.640;23.380;2023-05-07T03:32:03;94256.81;;;12.66;90.57
11808;BME280;5961;42.640;23.380;2023-05-07T03:34:31;94258.22;;;12.76;90.37
11808;BME280;5961;42.640;23.380;2023-05-07T03:36:57;94257.53;;;12.79;90.63
11808;BME280;5961;42.640;23.380;2023-05-07T03:39:24;94258.75;;;12.82;90.68
11808;BME280;5961;42.640;23.380;2023-05-07T03:41:52;94260.22;;;12.79;91.27
11808;BME280;5961;42.640;23.380;2023-05-07T03:44:19;94261.34;;;12.78;91.71
11808;BME280;5961;42.640;23.380;2023-05-07T03:46:46;94271.56;;;12.76;92.11
11808;BME280;5961;42.640;23.380;2023-05-07T03:49:12;94273.38;;;12.72;92.44
11808;BME280;5961;42.640;23.380;2023-05-07T03:51:39;94273.00;;;12.74;92.34
11808;BME280;5961;42.640;23.380;2023-05-07T03:54:06;94268.03;;;12.72;92.67
11808;BME280;5961;42.640;23.380;2023-05-07T03:56:33;94265.84;;;12.62;93.10
11808;BME280;5961;42.640;23.380;2023-05-07T03:59:01;94267.75;;;12.49;94.34
11808;BME280;5961;42.640;23.380;2023-05-07T04:01:28;94275.75;;;12.49;94.15
11808;BME280;5961;42.640;23.380;2023-05-07T04:03:55;94280.03;;;12.38;95.13
11808;BME280;5961;42.640;23.380;2023-05-07T04:06:21;94286.44;;;12.37;94.89
11808;BME280;5961;42.640;23.380;2023-05-07T04:08:48;94293.78;;;12.40;95.51
11808;BME280;5961;42.640;23.380;2023-05-07T04:11:15;94287.56;;;12.36;95.73
11808;BME280;5961;42.640;23.380;2023-05-07T04:13:41;94297.66;;;12.43;95.36
11808;BME280;5961;42.640;23.380;2023-05-07T04:16:09;94280.81;;;12.27;95.86
11808;BME280;5961;42.640;23.380;2023-05-07T04:18:36;94309.06;;;12.55;95.44
11808;BME280;5961;42.640;23.380;2023-05-07T04:21:03;94312.16;;;12.57;95.18
11808;BME280;5961;42.640;23.380;2023-05-07T04:23:30;94316.81;;;12.60;94.97
11808;BME280;5961;42.640;23.380;2023-05-07T04:25:56;94301.50;;;12.57;94.79
11808;BME280;5961;42.640;23.380;2023-05-07T04:28:23;94317.28;;;12.62;95.22
11808;BME280;5961;42.640;23.380;2023-05-07T04:30:51;94323.94;;;12.69;95.16
11808;BME280;5961;42.640;23.380;2023-05-07T04:33:19;94322.50;;;12.59;95.60
11808;BME280;5961;42.640;23.380;2023-05-07T04:35:45;94332.34;;;12.71;95.46
11808;BME280;5961;42.640;23.380;2023-05-07T04:38:12;94335.03;;;12.71;95.71
11808;BME280;5961;42.640;23.380;2023-05-07T04:40:39;94326.56;;;12.81;95.72
11808;BME280;5961;42.640;23.380;2023-05-07T04:43:06;94326.88;;;12.79;96.18
11808;BME280;5961;42.640;23.380;2023-05-07T04:45:34;94333.88;;;12.84;95.86
11808;BME280;5961;42.640;23.380;2023-05-07T04:48:01;94335.53;;;12.88;95.89
11808;BME280;5961;42.640;23.380;2023-05-07T04:50:29;94339.19;;;12.96;95.73
11808;BME280;5961;42.640;23.380;2023-05-07T04:52:55;94334.69;;;13.00;95.02
11808;BME280;5961;42.640;23.380;2023-05-07T04:55:22;94338.94;;;13.01;95.25
11808;BME280;5961;42.640;23.380;2023-05-07T04:57:49;94337.16;;;13.05;95.28
11808;BME280;5961;42.640;23.380;2023-05-07T05:00:16;94332.25;;;13.07;95.42
11808;BME280;5961;42.640;23.380;2023-05-07T05:02:44;94335.22;;;13.17;94.87
11808;BME280;5961;42.640;23.380;2023-05-07T05:05:11;94337.31;;;13.24;94.26
11808;BME280;5961;42.640;23.380;2023-05-07T05:07:39;94337.50;;;13.31;93.95
11808;BME280;5961;42.640;23.380;2023-05-07T05:10:06;94335.03;;;13.38;92.43
11808;BME280;5961;42.640;23.380;2023-05-07T05:12:33;94335.19;;;13.45;91.57
11808;BME280;5961;42.640;23.380;2023-05-07T05:14:59;94326.25;;;13.53;90.61
11808;BME280;5961;42.640;23.380;2023-05-07T05:17:26;94277.66;;;13.32;90.29
11808;BME280;5961;42.640;23.380;2023-05-07T05:19:53;94325.50;;;13.68;90.28
11808;BME280;5961;42.640;23.380;2023-05-07T05:22:19;94328.31;;;13.75;90.35
11808;BME280;5961;42.640;23.380;2023-05-07T05:24:47;94323.16;;;13.83;90.36
11808;BME280;5961;42.640;23.380;2023-05-07T05:27:14;94333.34;;;13.93;89.88
11808;BME280;5961;42.640;23.380;2023-05-07T05:29:41;94328.59;;;14.02;89.74
11808;BME280;5961;42.640;23.380;2023-05-07T05:32:07;94336.06;;;14.12;89.21
11808;BME280;5961;42.640;23.380;2023-05-07T05:34:34;94333.22;;;14.20;89.11
11808;BME280;5961;42.640;23.380;2023-05-07T05:37:01;94341.78;;;14.26;88.90
11808;BME280;5961;42.640;23.380;2023-05-07T05:39:27;94339.72;;;14.35;88.62
11808;BME280;5961;42.640;23.380;2023-05-07T05:41:56;94341.00;;;14.41;88.04
11808;BME280;5961;42.640;23.380;2023-05-07T05:44:22;94338.47;;;14.48;87.75
11808;BME280;5961;42.640;23.380;2023-05-07T05:46:49;94338.97;;;14.54;87.64
11808;BME280;5961;42.640;23.380;2023-05-07T05:49:16;94341.38;;;14.59;87.47
11808;BME280;5961;42.640;23.380;2023-05-07T05:51:42;94344.16;;;14.62;87.07
11808;BME280;5961;42.640;23.380;2023-05-07T05:54:09;94339.22;;;14.64;86.80
11808;BME280;5961;42.640;23.380;2023-05-07T05:56:36;94342.38;;;14.70;86.72
11808;BME280;5961;42.640;23.380;2023-05-07T05:59:05;94332.97;;;14.76;86.42
11808;BME280;5961;42.640;23.380;2023-05-07T06:01:32;94341.47;;;14.81;85.66
11808;BME280;5961;42.640;23.380;2023-05-07T06:03:59;94349.94;;;14.83;85.21
11808;BME280;5961;42.640;23.380;2023-05-07T06:06:25;94351.63;;;14.92;85.09
11808;BME280;5961;42.640;23.380;2023-05-07T06:08:52;94351.34;;;14.97;85.32
11808;BME280;5961;42.640;23.380;2023-05-07T06:11:19;94355.66;;;15.01;85.23
11808;BME280;5961;42.640;23.380;2023-05-07T06:13:46;94348.81;;;15.04;84.93
11808;BME280;5961;42.640;23.380;2023-05-07T06:16:14;94353.63;;;15.14;85.13
11808;BME280;5961;42.640;23.380;2023-05-07T06:18:41;94346.72;;;15.13;83.84
11808;BME280;5961;42.640;23.380;2023-05-07T06:21:09;94346.00;;;15.16;84.04
11808;BME280;5961;42.640;23.380;2023-05-07T06:23:36;94345.38;;;15.22;84.00
11808;BME280;5961;42.640;23.380;2023-05-07T06:26:03;94344.69;;;15.25;84.64
11808;BME280;5961;42.640;23.380;2023-05-07T06:28:29;94344.03;;;15.32;84.99
11808;BME280;5961;42.640;23.380;2023-05-07T06:31:11;94341.41;;;15.35;85.05
11808;BME280;5961;42.640;23.380;2023-05-07T06:33:39;94336.91;;;15.39;84.73
11808;BME280;5961;42.640;23.380;2023-05-07T06:36:06;94335.84;;;15.44;84.77
11808;BME280;5961;42.640;23.380;2023-05-07T06:38:33;94337.13;;;15.50;84.52
11808;BME280;5961;42.640;23.380;2023-05-07T06:40:59;94335.69;;;15.56;84.59
11808;BME280;5961;42.640;23.380;2023-05-07T06:43:26;94327.66;;;15.56;84.90
11808;BME280;5961;42.640;23.380;2023-05-07T06:45:53;94317.72;;;15.57;84.51
11808;BME280;5961;42.640;23.380;2023-05-07T06:48:20;94328.63;;;15.67;83.96
11808;BME280;5961;42.640;23.380;2023-05-07T06:50:48;94326.78;;;15.71;83.47
11808;BME280;5961;42.640;23.380;2023-05-07T06:53:14;94328.03;;;15.77;83.61
11808;BME280;5961;42.640;23.380;2023-05-07T06:55:41;94321.94;;;15.80;83.63
11808;BME280;5961;42.640;23.380;2023-05-07T06:58:08;94315.94;;;15.87;83.02
11808;BME280;5961;42.640;23.380;2023-05-07T07:00:34;94324.44;;;15.92;82.36
11808;BME280;5961;42.640;23.380;2023-05-07T07:03:01;94327.19;;;15.96;81.13
11808;BME280;5961;42.640;23.380;2023-05-07T07:05:28;94328.09;;;16.04;79.26
11808;BME280;5961;42.640;23.380;2023-05-07T07:07:56;94333.09;;;16.05;79.04
11808;BME280;5961;42.640;23.380;2023-05-07T07:10:22;94329.41;;;16.13;78.96
11808;BME280;5961;42.640;23.380;2023-05-07T07:12:49;94327.19;;;16.19;78.48
11808;BME280;5961;42.640;23.380;2023-05-07T07:15:17;94328.78;;;16.23;78.00
11808;BME280;5961;42.640;23.380;2023-05-07T07:17:46;94322.75;;;16.30;77.49
11808;BME280;5961;42.640;23.380;2023-05-07T07:20:12;94328.94;;;16.34;77.43
11808;BME280;5961;42.640;23.380;2023-05-07T07:22:39;94320.19;;;16.37;76.97
11808;BME280;5961;42.640;23.380;2023-05-07T07:25:08;94317.91;;;16.39;76.27
11808;BME280;5961;42.640;23.380;2023-05-07T07:27:36;94321.09;;;16.48;75.82
11808;BME280;5961;42.640;23.380;2023-05-07T07:30:03;94317.00;;;16.54;75.58
11808;BME280;5961;42.640;23.380;2023-05-07T07:32:30;94324.31;;;16.57;75.56
11808;BME280;5961;42.640;23.380;2023-05-07T07:34:57;94332.47;;;16.64;74.87
11808;BME280;5961;42.640;23.380;2023-05-07T07:37:24;94330.25;;;16.70;74.19
11808;BME280;5961;42.640;23.380;2023-05-07T07:39:51;94334.16;;;16.76;74.04
11808;BME280;5961;42.640;23.380;2023-05-07T07:42:19;94331.59;;;16.83;74.15
11808;BME280;5961;42.640;23.380;2023-05-07T07:44:45;94333.50;;;16.82;74.38
11808;BME280;5961;42.640;23.380;2023-05-07T07:47:12;94332.50;;;16.94;75.71
11808;BME280;5961;42.640;23.380;2023-05-07T07:49:39;94336.03;;;17.01;74.29
11808;BME280;5961;42.640;23.380;2023-05-07T07:52:05;94339.13;;;17.04;71.69
11808;BME280;5961;42.640;23.380;2023-05-07T07:54:32;94344.19;;;17.09;71.71
11808;BME280;5961;42.640;23.380;2023-05-07T07:56:59;94343.50;;;17.15;72.33
11808;BME280;5961;42.640;23.380;2023-05-07T07:59:28;94344.72;;;17.21;71.89
11808;BME280;5961;42.640;23.380;2023-05-07T08:01:54;94337.09;;;17.27;72.40
11808;BME280;5961;42.640;23.380;2023-05-07T08:04:22;94340.66;;;17.34;72.91
11808;BME280;5961;42.640;23.380;2023-05-07T08:06:49;94331.88;;;17.41;73.62
11808;BME280;5961;42.640;23.380;2023-05-07T08:09:15;94332.72;;;17.45;73.77
11808;BME280;5961;42.640;23.380;2023-05-07T08:11:42;94332.78;;;17.52;73.54
11808;BME280;5961;42.640;23.380;2023-05-07T08:14:09;94333.19;;;17.54;71.87
11808;BME280;5961;42.640;23.380;2023-05-07T08:16:37;94332.09;;;17.55;71.47
11808;BME280;5961;42.640;23.380;2023-05-07T08:19:03;94333.69;;;17.63;72.13
11808;BME280;5961;42.640;23.380;2023-05-07T08:21:30;94326.03;;;17.65;71.86
11808;BME280;5961;42.640;23.380;2023-05-07T08:23:57;94318.44;;;17.71;71.64
11808;BME280;5961;42.640;23.380;2023-05-07T08:26:24;94326.53;;;17.78;72.02
11808;BME280;5961;42.640;23.380;2023-05-07T08:28:50;94333.88;;;17.81;71.28
11808;BME280;5961;42.640;23.380;2023-05-07T08:31:17;94333.16;;;17.87;71.08
11808;BME280;5961;42.640;23.380;2023-05-07T08:33:45;94327.84;;;17.94;69.89
11808;BME280;5961;42.640;23.380;2023-05-07T08:36:12;94326.38;;;18.00;68.92
11808;BME280;5961;42.640;23.380;2023-05-07T08:38:38;94323.69;;;18.00;68.83
11808;BME280;5961;42.640;23.380;2023-05-07T08:41:09;94314.13;;;18.06;67.61
11808;BME280;5961;42.640;23.380;2023-05-07T08:43:38;94332.25;;;18.17;67.98
11808;BME280;5961;42.640;23.380;2023-05-07T08:46:09;94323.44;;;18.20;65.79
11808;BME280;5961;42.640;23.380;2023-05-07T08:48:35;94321.94;;;18.26;65.44
11808;BME280;5961;42.640;23.380;2023-05-07T08:51:05;94321.19;;;18.29;64.58
11808;BME280;5961;42.640;23.380;2023-05-07T08:53:33;94319.72;;;18.35;61.94
11808;BME280;5961;42.640;23.380;2023-05-07T08:55:59;94310.53;;;18.39;61.18
11808;BME280;5961;42.640;23.380;2023-05-07T08:58:26;94309.03;;;18.45;61.00
11808;BME280;5961;42.640;23.380;2023-05-07T09:00:53;94302.97;;;18.52;59.73
11808;BME280;5961;42.640;23.380;2023-05-07T09:03:20;94292.19;;;18.55;59.78
11808;BME280;5961;42.640;23.380;2023-05-07T09:05:47;94292.25;;;18.62;60.11
11808;BME280;5961;42.640;23.380;2023-05-07T09:08:15;94295.34;;;18.68;59.74
11808;BME280;5961;42.640;23.380;2023-05-07T09:10:42;94286.50;;;18.71;58.07
11808;BME280;5961;42.640;23.380;2023-05-07T09:13:09;94281.16;;;18.75;57.09
11808;BME280;5961;42.640;23.380;2023-05-07T09:15:38;94293.09;;;18.81;56.69
11808;BME280;5961;42.640;23.380;2023-05-07T09:18:05;94278.91;;;18.87;57.72
11808;BME280;5961;42.640;23.380;2023-05-07T09:20:31;94278.53;;;18.92;58.04
11808;BME280;5961;42.640;23.380;2023-05-07T09:22:58;94259.25;;;18.83;58.25
11808;BME280;5961;42.640;23.380;2023-05-07T09:25:30;94278.59;;;19.06;58.09
11808;BME280;5961;42.640;23.380;2023-05-07T09:27:57;94282.47;;;19.12;56.68
11808;BME280;5961;42.640;23.380;2023-05-07T09:30:27;94284.00;;;19.13;55.75
11808;BME280;5961;42.640;23.380;2023-05-07T09:32:54;94281.72;;;19.19;54.64
11808;BME280;5961;42.640;23.380;2023-05-07T09:35:21;94275.19;;;19.24;54.13
11808;BME280;5961;42.640;23.380;2023-05-07T09:37:49;94268.66;;;19.25;54.38
11808;BME280;5961;42.640;23.380;2023-05-07T09:40:23;94261.75;;;19.31;55.20
11808;BME280;5961;42.640;23.380;2023-05-07T09:42:52;94272.50;;;19.34;54.85
11808;BME280;5961;42.640;23.380;2023-05-07T09:45:22;94234.00;;;19.19;54.31
11808;BME280;5961;42.640;23.380;2023-05-07T09:47:49;94257.56;;;19.44;53.58
11808;BME280;5961;42.640;23.380;2023-05-07T09:50:19;94257.19;;;19.52;52.57
11808;BME280;5961;42.640;23.380;2023-05-07T09:52:46;94257.19;;;19.59;52.22
11808;BME280;5961;42.640;23.380;2023-05-07T09:55:14;94252.59;;;19.67;51.83
11808;BME280;5961;42.640;23.380;2023-05-07T09:57:42;94247.59;;;19.69;50.87
11808;BME280;5961;42.640;23.380;2023-05-07T10:00:12;94246.81;;;19.68;50.53
11808;BME280;5961;42.640;23.380;2023-05-07T10:02:41;94256.47;;;19.87;49.79
11808;BME280;5961;42.640;23.380;2023-05-07T10:05:14;94256.84;;;19.89;47.29
11808;BME280;5961;42.640;23.380;2023-05-07T10:07:41;94256.47;;;19.94;47.83
11808;BME280;5961;42.640;23.380;2023-05-07T10:10:08;94253.38;;;19.99;47.83
11808;BME280;5961;42.640;23.380;2023-05-07T10:12:35;94241.44;;;20.00;47.60
11808;BME280;5961;42.640;23.380;2023-05-07T10:15:06;94247.97;;;20.10;48.17
11808;BME280;5961;42.640;23.380;2023-05-07T10:17:37;94235.66;;;20.05;48.17
11808;BME280;5961;42.640;23.380;2023-05-07T10:20:04;94247.19;;;20.20;47.81
11808;BME280;5961;42.640;23.380;2023-05-07T10:22:37;94240.28;;;20.26;48.00
11808;BME280;5961;42.640;23.380;2023-05-07T10:25:06;94202.88;;;20.17;49.01
11808;BME280;5961;42.640;23.380;2023-05-07T10:27:36;94227.91;;;20.43;47.54
11808;BME280;5961;42.640;23.380;2023-05-07T10:30:12;94227.88;;;20.50;46.44
11808;BME280;5961;42.640;23.380;2023-05-07T10:32:45;94231.34;;;20.54;45.45
11808;BME280;5961;42.640;23.380;2023-05-07T10:35:16;94213.25;;;20.51;44.56
11808;BME280;5961;42.640;23.380;2023-05-07T10:37:44;94222.50;;;20.46;44.47
11808;BME280;5961;42.640;23.380;2023-05-07T10:40:12;94217.88;;;20.47;44.16
11808;BME280;5961;42.640;23.380;2023-05-07T10:42:53;94219.03;;;20.46;44.70
11808;BME280;5961;42.640;23.380;2023-05-07T10:45:20;94216.34;;;20.46;44.62
11808;BME280;5961;42.640;23.380;2023-05-07T10:48:11;94224.03;;;20.51;44.67
11808;BME280;5961;42.640;23.380;2023-05-07T10:50:39;94217.06;;;20.57;45.01
11808;BME280;5961;42.640;23.380;2023-05-07T10:53:22;94220.13;;;20.66;44.37
11808;BME280;5961;42.640;23.380;2023-05-07T10:59:30;94211.16;;;20.90;43.77
11808;BME280;5961;42.640;23.380;2023-05-07T11:02:00;94213.44;;;21.02;44.45
11808;BME280;5961;42.640;23.380;2023-05-07T11:04:29;94208.38;;;21.15;44.41
11808;BME280;5961;42.640;23.380;2023-05-07T11:07:24;94216.78;;;21.27;42.05
11808;BME280;5961;42.640;23.380;2023-05-07T11:09:58;94202.09;;;21.28;41.52
11808;BME280;5961;42.640;23.380;2023-05-07T11:15:40;94207.69;;;21.59;40.98
11808;BME280;5961;42.640;23.380;2023-05-07T11:18:08;94203.38;;;21.72;41.00
11808;BME280;5961;42.640;23.380;2023-05-07T11:20:47;94214.06;;;21.86;41.37
11808;BME280;5961;42.640;23.380;2023-05-07T11:23:55;94203.88;;;22.04;41.43
11808;BME280;5961;42.640;23.380;2023-05-07T11:26:26;94201.44;;;22.20;40.72
11808;BME280;5961;42.640;23.380;2023-05-07T11:28:53;94191.63;;;22.33;39.60
11808;BME280;5961;42.640;23.380;2023-05-07T11:31:22;94193.75;;;22.53;39.81
11808;BME280;5961;42.640;23.380;2023-05-07T11:33:50;94195.50;;;22.70;40.11
11808;BME280;5961;42.640;23.380;2023-05-07T11:36:18;94180.41;;;22.72;38.90
11808;BME280;5961;42.640;23.380;2023-05-07T11:38:46;94186.41;;;22.87;36.94
11808;BME280;5961;42.640;23.380;2023-05-07T11:41:13;94199.69;;;23.08;37.25
11808;BME280;5961;42.640;23.380;2023-05-07T11:43:54;94204.19;;;23.18;36.46
11808;BME280;5961;42.640;23.380;2023-05-07T11:46:21;94187.88;;;23.22;35.58
11808;BME280;5961;42.640;23.380;2023-05-07T11:48:47;94191.16;;;23.36;35.34
11808;BME280;5961;42.640;23.380;2023-05-07T11:51:19;94167.31;;;23.24;35.48
11808;BME280;5961;42.640;23.380;2023-05-07T11:53:45;94188.38;;;23.43;35.22
11808;BME280;5961;42.640;23.380;2023-05-07T11:56:13;94191.34;;;23.53;35.62
11808;BME280;5961;42.640;23.380;2023-05-07T11:58:41;94185.97;;;23.49;36.42
11808;BME280;5961;42.640;23.380;2023-05-07T12:01:08;94183.56;;;23.55;35.02
11808;BME280;5961;42.640;23.380;2023-05-07T12:03:36;94183.50;;;23.58;35.40
11808;BME280;5961;42.640;23.380;2023-05-07T12:06:05;94187.25;;;23.68;35.32
11808;BME280;5961;42.640;23.380;2023-05-07T12:08:36;94177.94;;;23.69;35.85
11808;BME280;5961;42.640;23.380;2023-05-07T12:11:03;94178.19;;;23.78;34.20
11808;BME280;5961;42.640;23.380;2023-05-07T12:13:30;94168.72;;;23.86;33.98
11808;BME280;5961;42.640;23.380;2023-05-07T12:15:56;94165.91;;;23.93;34.47
11808;BME280;5961;42.640;23.380;2023-05-07T12:18:24;94166.88;;;24.02;35.04
11808;BME280;5961;42.640;23.380;2023-05-07T12:20:51;94167.56;;;24.10;35.34
11808;BME280;5961;42.640;23.380;2023-05-07T12:23:18;94168.97;;;24.18;34.30
11808;BME280;5961;42.640;23.380;2023-05-07T12:25:46;94158.34;;;24.27;33.58
11808;BME280;5961;42.640;23.380;2023-05-07T12:28:13;94162.25;;;24.26;33.28
11808;BME280;5961;42.640;23.380;2023-05-07T12:30:42;94121.88;;;24.05;33.96
11808;BME280;5961;42.640;23.380;2023-05-07T12:33:09;94153.69;;;24.28;33.53
11808;BME280;5961;42.640;23.380;2023-05-07T12:35:38;94143.59;;;24.28;32.69
11808;BME280;5961;42.640;23.380;2023-05-07T12:38:08;94098.50;;;23.88;33.17
11808;BME280;5961;42.640;23.380;2023-05-07T12:40:36;94141.34;;;24.23;32.53
11808;BME280;5961;42.640;23.380;2023-05-07T12:43:04;94140.44;;;24.30;32.90
11808;BME280;5961;42.640;23.380;2023-05-07T12:45:31;94131.41;;;24.36;33.20
11808;BME280;5961;42.640;23.380;2023-05-07T12:48:02;94135.53;;;24.44;32.76
11808;BME280;5961;42.640;23.380;2023-05-07T12:50:31;94131.13;;;24.50;32.57
11808;BME280;5961;42.640;23.380;2023-05-07T12:52:58;94130.84;;;24.65;32.55
11808;BME280;5961;42.640;23.380;2023-05-07T12:55:25;94129.88;;;24.75;32.50
11808;BME280;5961;42.640;23.380;2023-05-07T12:57:52;94125.34;;;24.88;32.13
11808;BME280;5961;42.640;23.380;2023-05-07T13:00:34;94102.59;;;24.98;31.08
11808;BME280;5961;42.640;23.380;2023-05-07T13:03:00;94109.25;;;25.13;30.62
11808;BME280;5961;42.640;23.380;2023-05-07T13:05:27;94110.81;;;25.30;31.51
11808;BME280;5961;42.640;23.380;2023-05-07T13:07:54;94110.66;;;25.37;29.80
11808;BME280;5961;42.640;23.380;2023-05-07T13:10:22;94091.16;;;25.39;30.07